Time;durP1;ratioP1;P1;durP2;ratioP2;P2;SDS_P1;SDS_P2;PMS_P1;PMS_P2;Temp;Humidity;BMP_temperature;BMP_pressure;BME280_temperature;BME280_humidity;BME280_pressure;Samples;Min_cycle;Max_cycle;Signal;HPM_P1;HPM_P2
2022/02/12 00:00:27;;;;;;;3.17;0.90;;;19.70;49.20;;;;;;5075163;28;20040;-62
2022/02/12 00:02:55;;;;;;;2.55;1.00;;;19.70;49.20;;;;;;5075174;28;20052;-62
2022/02/12 00:05:25;;;;;;;4.25;1.27;;;19.70;49.30;;;;;;5072955;28;20041;-62
2022/02/12 00:07:52;;;;;;;7.85;1.20;;;19.70;49.30;;;;;;5073914;28;20041;-62
2022/02/12 00:10:19;;;;;;;6.07;1.00;;;19.70;49.30;;;;;;5072823;28;20134;-61
2022/02/12 00:12:47;;;;;;;1.60;1.10;;;19.60;49.30;;;;;;5075552;28;20378;-61
2022/02/12 00:15:16;;;;;;;3.03;1.55;;;19.60;49.30;;;;;;5070136;28;20735;-61
2022/02/12 00:17:43;;;;;;;3.78;1.30;;;19.60;49.40;;;;;;5072684;28;20110;-61
2022/02/12 00:20:10;;;;;;;2.17;0.93;;;19.60;49.40;;;;;;5076386;28;20131;-61
2022/02/12 00:22:38;;;;;;;2.20;0.80;;;19.60;49.40;;;;;;5073710;28;20036;-63
2022/02/12 00:25:06;;;;;;;1.85;0.88;;;19.50;49.30;;;;;;5082353;28;20529;-62
2022/02/12 00:27:33;;;;;;;3.60;1.05;;;19.50;49.30;;;;;;5073335;28;20044;-62
2022/02/12 00:30:00;;;;;;;1.40;0.75;;;19.50;49.20;;;;;;5073502;28;20041;-63
2022/02/12 00:32:29;;;;;;;3.60;0.80;;;19.50;49.20;;;;;;5057024;28;20076;-62
2022/02/12 00:34:56;;;;;;;1.95;0.90;;;19.50;49.10;;;;;;5074202;28;20055;-62
2022/02/12 00:37:25;;;;;;;1.83;0.50;;;19.50;49.10;;;;;;5073768;28;20399;-61
2022/02/12 00:39:52;;;;;;;1.40;0.77;;;19.50;49.10;;;;;;5075768;28;20127;-62
2022/02/12 00:42:22;;;;;;;1.05;0.95;;;19.50;49.10;;;;;;5051785;28;20044;-62
2022/02/12 00:44:49;;;;;;;6.50;0.93;;;19.40;49.00;;;;;;5073278;28;20848;-63
2022/02/12 00:47:16;;;;;;;2.25;0.90;;;19.40;49.10;;;;;;5076476;28;20051;-63
2022/02/12 00:49:45;;;;;;;1.25;0.77;;;19.40;49.10;;;;;;5073794;28;20048;-63
2022/02/12 00:52:12;;;;;;;4.38;0.93;;;19.40;49.10;;;;;;5079040;28;20037;-62
2022/02/12 00:54:40;;;;;;;1.05;0.50;;;19.40;49.10;;;;;;5072197;28;20047;-61
2022/02/12 00:57:07;;;;;;;1.83;0.73;;;19.30;49.00;;;;;;5074408;28;20044;-60
2022/02/12 00:59:34;;;;;;;1.85;1.48;;;19.30;49.10;;;;;;5074207;28;20044;-61
2022/02/12 01:02:02;;;;;;;4.63;0.45;;;19.30;49.20;;;;;;5056582;28;20578;-61
2022/02/12 01:04:29;;;;;;;4.63;1.17;;;19.30;49.20;;;;;;5074231;28;20072;-61
2022/02/12 01:06:57;;;;;;;1.52;0.95;;;19.30;49.10;;;;;;5075068;28;20044;-60
2022/02/12 01:09:24;;;;;;;1.35;0.65;;;19.20;49.00;;;;;;5068531;28;20044;-61
2022/02/12 01:11:52;;;;;;;2.45;0.75;;;19.20;49.00;;;;;;5054476;28;20190;-60
2022/02/12 01:14:19;;;;;;;1.65;0.70;;;19.20;49.00;;;;;;5075525;28;20459;-61
2022/02/12 01:16:46;;;;;;;3.78;1.33;;;19.20;49.00;;;;;;5073667;28;20040;-61
2022/02/12 01:19:13;;;;;;;3.28;1.02;;;19.20;48.90;;;;;;5072023;28;20056;-61
2022/02/12 01:21:41;;;;;;;2.20;0.75;;;19.20;48.90;;;;;;5071646;28;20850;-60
2022/02/12 01:24:09;;;;;;;1.52;0.70;;;19.10;48.90;;;;;;5074024;28;20127;-61
2022/02/12 01:26:36;;;;;;;1.55;1.27;;;19.20;48.90;;;;;;5073468;28;20043;-61
2022/02/12 01:29:04;;;;;;;3.03;0.63;;;19.10;48.90;;;;;;5073555;28;20045;-61
2022/02/12 01:31:31;;;;;;;2.45;0.68;;;19.10;48.90;;;;;;5073505;28;20097;-61
2022/02/12 01:33:58;;;;;;;1.58;0.43;;;19.10;48.90;;;;;;5074430;28;20113;-60
2022/02/12 01:36:25;;;;;;;1.90;0.93;;;19.10;48.80;;;;;;5050077;28;20530;-63
2022/02/12 01:38:52;;;;;;;5.15;1.15;;;19.10;48.80;;;;;;5071962;28;20047;-63
2022/02/12 01:41:21;;;;;;;2.70;1.20;;;19.10;48.80;;;;;;5075231;28;20044;-64
2022/02/12 01:43:48;;;;;;;2.28;0.70;;;19.10;48.80;;;;;;5076454;28;20119;-62
2022/02/12 01:46:15;;;;;;;4.82;1.85;;;19.10;48.80;;;;;;5072471;28;20044;-63
2022/02/12 01:48:44;;;;;;;3.90;0.52;;;19.00;48.60;;;;;;5070902;28;20587;-63
2022/02/12 01:51:11;;;;;;;5.47;0.90;;;19.00;48.60;;;;;;5074586;28;20094;-63
2022/02/12 01:53:39;;;;;;;2.33;1.33;;;19.00;48.60;;;;;;5073076;28;20049;-63
2022/02/12 01:56:10;;;;;;;2.45;0.47;;;19.00;48.50;;;;;;5073004;28;20064;-62
2022/02/12 01:58:38;;;;;;;4.63;1.55;;;19.00;48.50;;;;;;5072986;28;20483;-62
2022/02/12 02:01:05;;;;;;;1.33;0.55;;;19.00;48.50;;;;;;5074143;28;20043;-62
2022/02/12 02:03:34;;;;;;;1.55;0.95;;;19.00;48.50;;;;;;5069833;28;20046;-61
2022/02/12 02:06:01;;;;;;;2.50;0.63;;;18.90;48.30;;;;;;5069835;28;20048;-62
2022/02/12 02:08:29;;;;;;;2.35;0.52;;;18.90;48.30;;;;;;5062355;28;20044;-61
2022/02/12 02:11:00;;;;;;;1.27;0.63;;;18.90;48.30;;;;;;5078346;28;20048;-61
2022/02/12 02:13:28;;;;;;;3.33;0.75;;;18.90;48.20;;;;;;5071426;28;20040;-62
2022/02/12 02:15:56;;;;;;;2.00;0.63;;;18.90;48.20;;;;;;5072000;28;20036;-62
2022/02/12 02:18:23;;;;;;;1.05;0.52;;;18.90;48.20;;;;;;5067757;28;20044;-61
2022/02/12 02:20:52;;;;;;;3.55;1.05;;;18.90;48.10;;;;;;5073281;28;20036;-61
2022/02/12 02:23:21;;;;;;;1.58;0.40;;;18.90;48.10;;;;;;5072306;28;20052;-61
2022/02/12 02:25:48;;;;;;;0.77;0.40;;;18.90;48.10;;;;;;5072193;28;20047;-61
2022/02/12 02:28:15;;;;;;;3.90;1.00;;;18.80;48.00;;;;;;5069390;28;20041;-63
2022/02/12 02:30:42;;;;;;;1.15;0.40;;;18.80;47.90;;;;;;5075607;28;20036;-63
2022/02/12 02:33:10;;;;;;;1.27;0.90;;;18.80;47.90;;;;;;5070658;28;20533;-62
2022/02/12 02:35:38;;;;;;;3.72;0.70;;;18.80;47.90;;;;;;5072214;28;20044;-62
2022/02/12 02:38:09;;;;;;;0.90;0.63;;;18.80;47.80;;;;;;5071211;28;20059;-62
2022/02/12 02:40:37;;;;;;;1.30;0.65;;;18.80;47.80;;;;;;5070173;28;20048;-62
2022/02/12 02:43:05;;;;;;;1.55;0.50;;;18.70;47.70;;;;;;5080627;28;20039;-61
2022/02/12 02:45:33;;;;;;;2.72;0.85;;;18.80;47.80;;;;;;5067589;28;20032;-62
2022/02/12 02:48:01;;;;;;;1.63;0.77;;;18.80;47.70;;;;;;5050004;28;20048;-62
2022/02/12 02:56:02;;;;;;;1.88;0.95;;;18.70;47.60;;;;;;5069767;28;20067;-63
2022/02/12 02:58:33;;;;;;;1.67;0.40;;;18.70;47.70;;;;;;5074478;28;20040;-63
2022/02/12 03:01:01;;;;;;;2.92;0.60;;;18.70;47.60;;;;;;5069604;28;20063;-62
2022/02/12 03:03:30;;;;;;;2.08;0.40;;;18.70;47.60;;;;;;5083629;28;20044;-62
2022/02/12 03:05:58;;;;;;;2.42;0.73;;;18.70;47.50;;;;;;5068582;28;20040;-62
2022/02/12 03:08:25;;;;;;;1.88;0.32;;;18.70;47.50;;;;;;5075776;28;20040;-63
2022/02/12 03:10:52;;;;;;;0.90;0.47;;;18.70;47.50;;;;;;5079246;28;20505;-62
2022/02/12 03:13:21;;;;;;;5.97;0.75;;;18.70;47.40;;;;;;5070565;28;20076;-61
2022/02/12 03:15:48;;;;;;;2.25;0.82;;;18.70;47.50;;;;;;5077996;28;20047;-61
2022/02/12 03:18:15;;;;;;;1.05;0.40;;;18.70;47.50;;;;;;5066695;28;20098;-61
2022/02/12 03:20:42;;;;;;;1.33;0.80;;;18.60;47.40;;;;;;5070682;28;20131;-61
2022/02/12 03:23:10;;;;;;;2.47;0.75;;;18.70;47.40;;;;;;5070729;28;20055;-61
2022/02/12 03:25:37;;;;;;;1.92;0.30;;;18.60;47.30;;;;;;5076463;28;20047;-61
2022/02/12 03:28:06;;;;;;;3.40;0.20;;;18.60;47.30;;;;;;5069724;28;20036;-61
2022/02/12 03:30:36;;;;;;;1.50;0.70;;;18.60;47.30;;;;;;5067027;28;27141;-61
2022/02/12 03:33:04;;;;;;;3.25;0.35;;;18.60;47.30;;;;;;5067353;28;20156;-63
2022/02/12 03:35:31;;;;;;;0.82;0.63;;;18.60;47.20;;;;;;5072687;28;20040;-62
2022/02/12 03:38:08;;;;;;;1.77;0.65;;;18.60;47.20;;;;;;5073982;28;20047;-62
2022/02/12 03:40:36;;;;;;;2.00;0.55;;;18.60;47.80;;;;;;5070509;28;20617;-61
2022/02/12 03:43:03;;;;;;;1.60;0.40;;;18.60;47.20;;;;;;5067245;28;20041;-62
2022/02/12 03:45:31;;;;;;;1.63;1.00;;;18.50;47.10;;;;;;5071327;28;20508;-62
2022/02/12 03:48:00;;;;;;;1.38;0.40;;;18.50;47.10;;;;;;5069221;28;20049;-63
2022/02/12 03:50:28;;;;;;;1.48;0.40;;;18.50;47.10;;;;;;5069978;28;20055;-62
2022/02/12 03:52:55;;;;;;;1.08;0.50;;;18.50;47.20;;;;;;5072161;28;20046;-62
2022/02/12 03:55:22;;;;;;;2.53;0.40;;;18.50;47.10;;;;;;5069922;28;20045;-62
2022/02/12 03:57:49;;;;;;;2.20;0.73;;;18.50;47.10;;;;;;5066970;28;20535;-62
2022/02/12 04:00:17;;;;;;;3.13;0.77;;;18.50;47.10;;;;;;5067557;28;20044;-62
2022/02/12 04:02:45;;;;;;;1.23;0.80;;;18.50;47.10;;;;;;5071236;28;20770;-62
2022/02/12 04:05:15;;;;;;;2.00;0.93;;;18.50;47.10;;;;;;5072455;28;20095;-62
2022/02/12 04:07:42;;;;;;;2.15;0.70;;;18.50;47.00;;;;;;5078680;28;20036;-62
2022/02/12 04:10:11;;;;;;;2.13;0.50;;;18.40;47.00;;;;;;5071730;28;20850;-62
2022/02/12 04:12:38;;;;;;;2.10;0.65;;;18.40;47.00;;;;;;5073350;28;20067;-63
2022/02/12 04:15:07;;;;;;;1.45;0.75;;;18.40;47.00;;;;;;5087049;28;20071;-62
2022/02/12 04:17:35;;;;;;;1.25;0.70;;;18.40;47.00;;;;;;5076281;28;20040;-62
2022/02/12 04:20:03;;;;;;;1.20;0.82;;;18.40;47.00;;;;;;5078356;28;20488;-62
2022/02/12 04:22:33;;;;;;;0.57;0.40;;;18.40;47.10;;;;;;5072989;28;20516;-62
2022/02/12 04:25:01;;;;;;;4.18;2.15;;;18.40;47.00;;;;;;5079672;28;20149;-61
2022/02/12 04:27:28;;;;;;;3.95;0.63;;;18.40;46.90;;;;;;5069825;28;20135;-63
2022/02/12 04:29:57;;;;;;;2.85;0.82;;;18.40;47.00;;;;;;5074077;28;20080;-61
2022/02/12 04:32:24;;;;;;;1.27;0.50;;;18.40;47.00;;;;;;5074748;28;20086;-60
2022/02/12 04:34:52;;;;;;;0.65;0.28;;;18.40;47.00;;;;;;5072836;28;20037;-61
2022/02/12 04:37:20;;;;;;;1.38;0.80;;;18.30;46.90;;;;;;5072148;28;20127;-60
2022/02/12 04:39:49;;;;;;;5.57;0.50;;;18.40;46.90;;;;;;5073575;28;20109;-60
2022/02/12 04:42:17;;;;;;;1.15;0.45;;;18.30;46.80;;;;;;5069688;28;20040;-62
2022/02/12 04:44:45;;;;;;;1.75;0.77;;;18.30;46.80;;;;;;5054439;28;20052;-61
2022/02/12 04:47:12;;;;;;;1.10;0.50;;;18.30;46.80;;;;;;5077015;28;20452;-62
2022/02/12 04:49:40;;;;;;;1.33;0.30;;;18.30;46.80;;;;;;5073094;28;20037;-62
2022/02/12 04:52:08;;;;;;;2.60;0.60;;;18.30;46.80;;;;;;5072562;28;20040;-62
2022/02/12 04:54:35;;;;;;;1.85;0.57;;;18.30;46.80;;;;;;5070694;28;20139;-62
2022/02/12 04:57:06;;;;;;;4.63;0.88;;;18.30;46.70;;;;;;5074556;28;20088;-62
2022/02/12 04:59:35;;;;;;;1.42;0.52;;;18.30;46.70;;;;;;5072276;28;20085;-61
2022/02/12 05:02:02;;;;;;;2.47;0.93;;;18.30;46.70;;;;;;5075915;28;20143;-60
2022/02/12 05:04:29;;;;;;;0.40;0.30;;;18.30;46.70;;;;;;5075261;28;20068;-62
2022/02/12 05:06:56;;;;;;;1.70;0.38;;;18.30;46.80;;;;;;5072816;28;20040;-61
2022/02/12 05:09:23;;;;;;;2.30;0.80;;;18.30;46.80;;;;;;5069575;28;20781;-61
2022/02/12 05:11:51;;;;;;;3.50;0.50;;;18.30;46.80;;;;;;5074497;28;20067;-61
2022/02/12 05:14:22;;;;;;;0.77;0.43;;;18.30;46.80;;;;;;5076527;28;20041;-61
2022/02/12 05:16:49;;;;;;;2.97;0.35;;;18.20;46.70;;;;;;5071705;28;20075;-62
2022/02/12 05:19:16;;;;;;;0.75;0.35;;;18.20;46.70;;;;;;5071195;28;20794;-61
2022/02/12 05:21:43;;;;;;;0.98;0.38;;;18.20;46.70;;;;;;5083714;28;20044;-61
2022/02/12 05:24:10;;;;;;;2.03;0.77;;;18.20;46.60;;;;;;5073369;28;20056;-61
2022/02/12 05:26:37;;;;;;;1.25;0.70;;;18.20;46.60;;;;;;5072699;28;20051;-61
2022/02/12 05:29:05;;;;;;;1.42;0.40;;;18.20;46.60;;;;;;5075451;28;20919;-61
2022/02/12 05:31:33;;;;;;;2.85;0.63;;;18.20;46.50;;;;;;5076590;28;20111;-62
2022/02/12 05:34:00;;;;;;;1.63;0.55;;;18.20;46.60;;;;;;5077896;28;20201;-61
2022/02/12 05:36:27;;;;;;;2.03;0.40;;;18.20;46.70;;;;;;5074871;28;20115;-61
2022/02/12 05:38:54;;;;;;;0.80;0.20;;;18.20;46.60;;;;;;5071498;28;20032;-61
2022/02/12 05:41:21;;;;;;;1.50;0.40;;;18.20;46.60;;;;;;5075254;28;20059;-58
2022/02/12 05:43:49;;;;;;;0.93;0.35;;;18.10;46.50;;;;;;5078561;28;20032;-62
2022/02/12 05:46:16;;;;;;;2.90;0.50;;;18.20;46.60;;;;;;5078544;28;20173;-62
2022/02/12 05:48:45;;;;;;;0.80;0.52;;;18.10;46.70;;;;;;5066046;28;20058;-62
2022/02/12 05:51:12;;;;;;;3.03;0.98;;;18.20;46.80;;;;;;5079728;28;20607;-63
2022/02/12 05:53:40;;;;;;;1.40;0.80;;;18.20;46.80;;;;;;5085423;28;20046;-62
2022/02/12 05:56:07;;;;;;;2.78;0.75;;;18.20;47.00;;;;;;5080777;28;20056;-63
2022/02/12 05:58:34;;;;;;;4.32;1.25;;;18.10;46.90;;;;;;5081818;28;20032;-63
2022/02/12 06:01:01;;;;;;;1.63;0.60;;;18.20;47.00;;;;;;5080737;28;20048;-63
2022/02/12 06:03:28;;;;;;;3.20;0.75;;;18.20;47.00;;;;;;5080762;28;20054;-62
2022/02/12 06:05:56;;;;;;;1.65;0.20;;;18.20;47.00;;;;;;5084660;28;20052;-63
2022/02/12 06:08:24;;;;;;;3.53;0.50;;;18.20;47.00;;;;;;5068618;28;20116;-63
2022/02/12 06:10:51;;;;;;;3.30;0.88;;;18.20;47.00;;;;;;5079123;28;20072;-63
2022/02/12 06:13:19;;;;;;;4.43;0.75;;;18.20;47.00;;;;;;5079664;28;20036;-63
2022/02/12 06:15:46;;;;;;;1.85;0.95;;;18.20;46.90;;;;;;5076447;28;20510;-63
2022/02/12 06:18:13;;;;;;;3.42;0.85;;;18.20;46.80;;;;;;5080422;28;20044;-63
2022/02/12 06:20:40;;;;;;;1.55;0.50;;;18.20;46.80;;;;;;5079282;28;20044;-63
2022/02/12 06:23:09;;;;;;;2.20;0.30;;;18.20;46.80;;;;;;5080431;28;20044;-63
2022/02/12 06:25:36;;;;;;;1.70;0.65;;;18.20;46.70;;;;;;5079472;28;20054;-63
2022/02/12 06:28:04;;;;;;;5.47;1.65;;;18.10;46.60;;;;;;5082422;28;20407;-64
2022/02/12 06:30:32;;;;;;;3.70;0.90;;;18.20;46.70;;;;;;5078631;28;20531;-63
2022/02/12 06:32:59;;;;;;;4.40;0.70;;;18.20;46.60;;;;;;5074141;28;20037;-65
2022/02/12 06:35:27;;;;;;;4.40;1.25;;;18.20;46.70;;;;;;5062403;28;20439;-59
2022/02/12 06:37:55;;;;;;;3.17;0.40;;;18.10;46.90;;;;;;5074928;28;20795;-50
2022/02/12 06:40:25;;;;;;;22.00;1.40;;;18.20;47.20;;;;;;5068692;28;20044;-57
2022/02/12 06:42:52;;;;;;;6.55;0.57;;;18.20;45.90;;;;;;5069577;28;20044;-53
2022/02/12 06:45:19;;;;;;;3.22;0.70;;;18.20;46.00;;;;;;5076886;28;20139;-53
2022/02/12 06:47:46;;;;;;;4.95;0.80;;;18.20;45.80;;;;;;5085849;28;20043;-56
2022/02/12 06:50:13;;;;;;;4.32;1.17;;;18.30;45.60;;;;;;5078896;28;20071;-56
2022/02/12 06:52:41;;;;;;;1.88;0.57;;;18.30;46.10;;;;;;5064784;28;20036;-54
2022/02/12 06:55:11;;;;;;;3.78;0.20;;;18.40;46.30;;;;;;5079670;28;20157;-56
2022/02/12 06:57:39;;;;;;;4.85;0.57;;;18.40;46.30;;;;;;5068934;28;20036;-58
2022/02/12 07:00:08;;;;;;;3.15;0.40;;;18.50;46.20;;;;;;5070810;28;20131;-59
2022/02/12 07:02:35;;;;;;;2.97;0.93;;;18.40;46.10;;;;;;5072698;28;20048;-59
2022/02/12 07:05:04;;;;;;;6.85;0.32;;;18.50;46.10;;;;;;5070357;28;20028;-58
2022/02/12 07:07:32;;;;;;;3.35;0.40;;;18.40;46.00;;;;;;5075186;28;20384;-58
2022/02/12 07:09:59;;;;;;;3.40;0.22;;;18.40;45.90;;;;;;5072298;28;20079;-57
2022/02/12 07:12:26;;;;;;;3.22;0.70;;;18.40;45.90;;;;;;5049309;28;20067;-58
2022/02/12 07:14:55;;;;;;;1.67;0.52;;;18.40;45.90;;;;;;5069007;28;20048;-57
2022/02/12 07:17:22;;;;;;;1.38;0.30;;;18.40;45.80;;;;;;5072468;28;20041;-57
2022/02/12 07:19:49;;;;;;;4.88;0.30;;;18.40;45.70;;;;;;5069845;28;20465;-59
2022/02/12 07:22:24;;;;;;;2.42;0.20;;;18.40;45.80;;;;;;5073723;28;20570;-58
2022/02/12 07:24:51;;;;;;;3.83;0.20;;;18.30;45.70;;;;;;5068100;28;20064;-58
2022/02/12 07:27:18;;;;;;;1.55;0.35;;;18.30;45.60;;;;;;5071525;28;20772;-59
2022/02/12 07:29:45;;;;;;;1.80;0.20;;;18.30;45.60;;;;;;5070482;28;20386;-58
2022/02/12 07:32:14;;;;;;;0.57;0.13;;;18.30;45.60;;;;;;5071429;28;20040;-59
2022/02/12 07:34:41;;;;;;;2.38;0.65;;;18.30;45.50;;;;;;5073264;28;20059;-59
2022/02/12 07:37:09;;;;;;;1.23;0.52;;;18.30;45.50;;;;;;5068973;28;20137;-59
2022/02/12 07:39:37;;;;;;;1.38;0.30;;;18.30;45.60;;;;;;5074728;28;20075;-59
2022/02/12 07:42:05;;;;;;;2.80;0.30;;;18.30;45.50;;;;;;5071480;28;20044;-59
2022/02/12 07:44:32;;;;;;;0.73;0.50;;;18.30;45.50;;;;;;5084375;28;20569;-59
2022/02/12 07:46:59;;;;;;;0.50;0.20;;;18.30;45.40;;;;;;5067820;28;20059;-58
2022/02/12 07:49:28;;;;;;;1.33;0.32;;;18.30;45.40;;;;;;5086105;28;20097;-58
2022/02/12 07:51:55;;;;;;;5.05;0.98;;;18.30;45.30;;;;;;5081838;28;20044;-60
2022/02/12 07:54:22;;;;;;;2.50;0.30;;;18.30;45.30;;;;;;5073606;28;20040;-59
2022/02/12 07:56:53;;;;;;;1.27;0.20;;;18.20;45.30;;;;;;5074368;28;20072;-59
2022/02/12 07:59:22;;;;;;;0.85;0.22;;;18.20;45.30;;;;;;5073856;28;20781;-59
2022/02/12 08:01:49;;;;;;;1.83;0.60;;;18.20;45.30;;;;;;5076901;28;20047;-59
2022/02/12 08:04:16;;;;;;;1.58;0.40;;;18.20;45.30;;;;;;5073862;28;20482;-59
2022/02/12 08:09:31;;;;;;;0.80;0.28;;;18.20;45.10;;;;;;5071069;28;20047;-59
2022/02/12 08:12:06;;;;;;;3.03;0.30;;;18.20;45.10;;;;;;5074550;28;20225;-59
2022/02/12 08:14:34;;;;;;;1.60;0.20;;;18.20;45.10;;;;;;5074016;28;20045;-59
2022/02/12 08:17:01;;;;;;;5.20;0.63;;;18.20;45.10;;;;;;5073691;28;20412;-58
2022/02/12 08:19:29;;;;;;;1.90;0.35;;;18.10;45.00;;;;;;5074637;28;20565;-59
2022/02/12 08:21:58;;;;;;;1.20;0.35;;;18.20;45.00;;;;;;5073555;28;20462;-59
2022/02/12 08:24:25;;;;;;;1.45;0.10;;;18.20;45.00;;;;;;5072863;28;20038;-58
2022/02/12 08:26:52;;;;;;;2.58;0.40;;;18.10;45.00;;;;;;5072595;28;20045;-58
2022/02/12 08:29:19;;;;;;;2.97;0.40;;;18.10;44.90;;;;;;5079094;28;20127;-58
2022/02/12 08:31:47;;;;;;;2.25;0.43;;;18.10;44.80;;;;;;5077530;28;20566;-58
2022/02/12 08:34:15;;;;;;;0.93;0.38;;;18.10;44.70;;;;;;5072344;28;20102;-58
2022/02/12 08:36:42;;;;;;;0.77;0.20;;;18.10;44.70;;;;;;5072981;28;20120;-58
2022/02/12 08:39:11;;;;;;;0.88;0.50;;;18.10;44.70;;;;;;5076666;28;20055;-58
2022/02/12 08:41:38;;;;;;;1.23;0.30;;;18.20;44.70;;;;;;5073462;28;20040;-58
2022/02/12 08:44:06;;;;;;;2.30;0.30;;;18.20;44.60;;;;;;5073610;28;20106;-58
2022/02/12 08:46:33;;;;;;;2.38;0.40;;;18.10;44.60;;;;;;5074882;28;20036;-58
2022/02/12 08:49:01;;;;;;;1.27;0.20;;;18.10;44.50;;;;;;5054353;28;20036;-55
2022/02/12 08:51:28;;;;;;;1.00;0.73;;;18.10;44.40;;;;;;5071450;28;20050;-56
2022/02/12 08:53:55;;;;;;;0.50;0.20;;;18.10;44.40;;;;;;5071226;28;20135;-55
2022/02/12 08:56:26;;;;;;;0.75;0.20;;;18.10;44.40;;;;;;5074994;28;20068;-57
2022/02/12 08:58:53;;;;;;;0.50;0.40;;;18.20;44.40;;;;;;5076752;28;20123;-57
2022/02/12 09:01:21;;;;;;;1.27;0.38;;;18.20;44.30;;;;;;5081020;28;20098;-57
2022/02/12 09:03:48;;;;;;;2.13;0.47;;;18.20;44.30;;;;;;5069866;28;20759;-57
2022/02/12 09:06:15;;;;;;;0.45;0.32;;;18.20;44.20;;;;;;5072642;28;20761;-57
2022/02/12 09:08:42;;;;;;;1.83;0.22;;;18.20;44.20;;;;;;5072853;28;20074;-59
2022/02/12 09:11:09;;;;;;;1.33;0.40;;;18.20;44.10;;;;;;5073287;28;20417;-58
2022/02/12 09:13:38;;;;;;;0.90;0.20;;;18.20;44.10;;;;;;5074278;28;20123;-60
2022/02/12 09:16:06;;;;;;;0.85;0.10;;;18.20;44.00;;;;;;5072364;28;20035;-59
2022/02/12 09:18:33;;;;;;;0.88;0.32;;;18.20;44.00;;;;;;5069749;28;20047;-60
2022/02/12 09:21:00;;;;;;;0.70;0.20;;;18.20;43.90;;;;;;5070210;28;20040;-59
2022/02/12 09:23:28;;;;;;;1.88;0.10;;;18.20;43.80;;;;;;5075097;28;20255;-58
2022/02/12 09:25:56;;;;;;;2.35;0.45;;;18.30;43.80;;;;;;5072362;28;20040;-60
2022/02/12 09:28:23;;;;;;;2.05;0.13;;;18.30;43.80;;;;;;5070697;28;20497;-60
2022/02/12 09:30:51;;;;;;;1.00;0.20;;;18.30;43.70;;;;;;5069516;28;20032;-59
2022/02/12 09:33:18;;;;;;;0.95;0.20;;;18.30;43.60;;;;;;5072822;28;20044;-59
2022/02/12 09:35:47;;;;;;;0.82;0.20;;;18.30;43.60;;;;;;5072149;28;20131;-61
2022/02/12 09:38:14;;;;;;;0.20;0.10;;;18.30;43.50;;;;;;5072485;28;20059;-59
2022/02/12 09:40:42;;;;;;;0.20;0.20;;;18.30;43.50;;;;;;5074668;28;20039;-60
2022/02/12 09:43:09;;;;;;;2.45;0.30;;;18.30;43.40;;;;;;5072009;28;20106;-60
2022/02/12 09:45:43;;;;;;;1.10;0.17;;;18.30;43.30;;;;;;5070940;28;20055;-60
2022/02/12 09:48:14;;;;;;;1.50;0.20;;;18.40;43.30;;;;;;5070237;28;20049;-59
2022/02/12 09:50:42;;;;;;;1.67;0.25;;;18.40;43.30;;;;;;5075427;28;20123;-59
2022/02/12 09:53:10;;;;;;;0.95;0.30;;;18.40;43.20;;;;;;5071567;28;20139;-58
2022/02/12 09:55:37;;;;;;;0.70;0.20;;;18.40;43.10;;;;;;5076553;28;20051;-59
2022/02/12 09:58:07;;;;;;;2.30;0.50;;;18.40;43.10;;;;;;5070851;28;20094;-60
2022/02/12 10:00:35;;;;;;;0.85;0.20;;;18.40;43.00;;;;;;5073663;28;20039;-58
2022/02/12 10:03:02;;;;;;;1.15;0.20;;;18.50;43.00;;;;;;5069474;28;20045;-58
2022/02/12 10:05:32;;;;;;;1.20;0.20;;;18.40;42.90;;;;;;5071687;28;20068;-60
2022/02/12 10:08:18;;;;;;;0.88;0.20;;;18.50;42.80;;;;;;5059875;28;20040;-59
2022/02/12 10:10:47;;;;;;;2.72;0.20;;;18.50;42.70;;;;;;5072287;28;20053;-59
2022/02/12 10:13:18;;;;;;;1.50;0.50;;;18.50;42.70;;;;;;5076410;28;20501;-59
2022/02/12 10:15:46;;;;;;;3.15;0.90;;;18.50;42.60;;;;;;5070415;28;20055;-59
2022/02/12 10:18:14;;;;;;;1.05;0.38;;;18.50;42.60;;;;;;5072626;28;20054;-58
2022/02/12 10:20:44;;;;;;;1.33;0.55;;;18.60;42.60;;;;;;5071359;28;20036;-59
2022/02/12 10:23:13;;;;;;;4.22;0.60;;;18.60;42.50;;;;;;5071534;28;20041;-58
2022/02/12 10:25:42;;;;;;;3.28;0.60;;;18.60;42.50;;;;;;5075044;28;20052;-59
2022/02/12 10:28:11;;;;;;;4.00;0.93;;;18.70;42.40;;;;;;5071136;28;20397;-59
2022/02/12 10:30:40;;;;;;;1.27;0.28;;;18.70;42.40;;;;;;5075753;28;20071;-59
2022/02/12 10:33:09;;;;;;;0.82;0.30;;;18.70;42.30;;;;;;5069100;28;20497;-59
2022/02/12 10:35:39;;;;;;;2.45;0.73;;;18.70;42.20;;;;;;5077134;28;20051;-59
2022/02/12 10:38:10;;;;;;;2.38;0.45;;;18.80;42.10;;;;;;5070986;28;20036;-59
2022/02/12 10:40:39;;;;;;;1.02;0.43;;;18.80;42.10;;;;;;5072150;28;20120;-59
2022/02/12 10:43:07;;;;;;;1.00;0.70;;;18.80;42.00;;;;;;5069846;28;20044;-59
2022/02/12 10:45:34;;;;;;;3.30;0.80;;;18.90;42.00;;;;;;5072037;28;20035;-57
2022/02/12 10:48:03;;;;;;;3.40;0.60;;;18.90;41.80;;;;;;5069473;28;20048;-59
2022/02/12 10:50:31;;;;;;;3.13;0.30;;;19.00;41.80;;;;;;5073013;28;20041;-59
2022/02/12 10:53:02;;;;;;;1.83;0.45;;;19.00;41.70;;;;;;5079332;28;20044;-59
2022/02/12 10:55:32;;;;;;;1.63;0.40;;;19.00;41.50;;;;;;5071353;28;20791;-59
2022/02/12 10:58:02;;;;;;;5.03;0.77;;;19.10;41.50;;;;;;5068299;28;20120;-58
2022/02/12 11:00:32;;;;;;;3.20;0.90;;;19.20;41.40;;;;;;5066496;28;20032;-59
2022/02/12 11:03:01;;;;;;;3.15;0.73;;;19.20;41.20;;;;;;5071556;28;20040;-59
2022/02/12 11:05:28;;;;;;;1.45;0.35;;;19.30;41.10;;;;;;5071491;28;20048;-59
2022/02/12 11:07:56;;;;;;;2.42;0.82;;;19.40;41.10;;;;;;5075217;28;20127;-59
2022/02/12 11:10:23;;;;;;;2.33;0.77;;;19.40;40.90;;;;;;5057423;28;23326;-60
2022/02/12 11:12:52;;;;;;;0.75;0.60;;;19.50;40.80;;;;;;5071270;28;20051;-59
2022/02/12 11:15:19;;;;;;;2.17;1.10;;;19.60;41.20;;;;;;5068595;28;20068;-60
2022/02/12 11:17:48;;;;;;;5.28;1.02;;;19.60;40.60;;;;;;5081226;28;20055;-59
2022/02/12 11:20:16;;;;;;;3.15;1.10;;;19.70;40.50;;;;;;5076057;28;20616;-58
2022/02/12 11:22:43;;;;;;;3.45;1.10;;;19.70;40.30;;;;;;5070959;28;20115;-59
2022/02/12 11:25:33;;;;;;;8.20;2.30;;;19.80;40.20;;;;;;5068741;28;20044;-59
2022/02/12 11:28:07;;;;;;;3.17;1.67;;;19.90;40.10;;;;;;5071348;28;20093;-60
2022/02/12 11:30:35;;;;;;;7.88;1.48;;;20.00;40.00;;;;;;5066463;28;20032;-59
2022/02/12 11:33:09;;;;;;;3.00;1.20;;;20.00;39.90;;;;;;5070284;28;20048;-57
2022/02/12 11:35:37;;;;;;;5.13;1.17;;;20.10;39.90;;;;;;5071856;28;20045;-59
2022/02/12 11:38:35;;;;;;;3.60;1.85;;;20.20;39.80;;;;;;5074548;28;20041;-58
2022/02/12 11:41:20;;;;;;;4.15;2.00;;;20.40;39.60;;;;;;5071600;28;20041;-59
2022/02/12 11:43:50;;;;;;;4.07;1.52;;;20.40;39.50;;;;;;5075578;28;20735;-58
2022/02/12 11:47:07;;;;;;;5.28;2.05;;;20.50;39.40;;;;;;5070251;28;20519;-59
2022/02/12 11:49:36;;;;;;;3.28;1.63;;;20.60;39.30;;;;;;4991802;28;20104;-60
2022/02/12 11:52:07;;;;;;;6.07;1.52;;;20.60;39.20;;;;;;4987816;28;20046;-60
2022/02/12 11:55:00;;;;;;;6.70;2.10;;;20.70;39.10;;;;;;4984695;28;20457;-59
2022/02/12 11:57:45;;;;;;;4.32;2.38;;;20.80;38.90;;;;;;4989237;28;20985;-60
2022/02/12 12:00:40;;;;;;;5.32;2.13;;;20.90;38.80;;;;;;4983000;28;20046;-60
2022/02/12 12:03:11;;;;;;;8.32;2.13;;;21.00;38.70;;;;;;4986179;28;20522;-60
2022/02/12 12:05:38;;;;;;;6.05;2.38;;;21.00;38.60;;;;;;4994227;28;20042;-61
2022/02/12 12:08:15;;;;;;;6.80;2.63;;;21.10;38.60;;;;;;4987912;28;20165;-60
2022/02/12 12:11:13;;;;;;;7.38;1.88;;;21.20;38.40;;;;;;4989979;28;20104;-60
2022/02/12 12:13:42;;;;;;;5.18;2.00;;;21.30;38.30;;;;;;4991502;28;20045;-60
2022/02/12 12:16:21;;;;;;;2.85;2.05;;;21.30;38.90;;;;;;4981282;28;20042;-60
2022/02/12 12:18:49;;;;;;;3.55;1.02;;;21.40;38.20;;;;;;4985053;28;20042;-60
2022/02/12 12:21:18;;;;;;;4.63;1.75;;;21.50;38.20;;;;;;4986997;28;20125;-60
2022/02/12 12:23:55;;;;;;;3.65;1.30;;;21.50;38.00;;;;;;5031484;28;20433;-61
2022/02/12 12:26:40;;;;;;;3.85;1.48;;;21.60;38.60;;;;;;5071891;28;20041;-60
2022/02/12 12:31:59;;;;;;;;;;;21.70;37.80;;;;;;5078406;28;20153;-60
2022/02/12 12:34:27;;;;;;;2.15;1.83;;;21.70;37.80;;;;;;5073665;28;19924;-59
2022/02/12 12:36:56;;;;;;;4.07;2.08;;;21.80;37.80;;;;;;5073785;28;20032;-60
2022/02/12 12:39:32;;;;;;;5.82;1.00;;;21.90;37.70;;;;;;5072439;28;20044;-60
2022/02/12 12:42:00;;;;;;;5.47;1.70;;;21.90;37.50;;;;;;5074542;28;20045;-60
2022/02/12 12:44:28;;;;;;;3.83;0.88;;;22.00;37.80;;;;;;5073540;28;20067;-61
2022/02/12 12:46:59;;;;;;;4.05;1.40;;;22.00;37.40;;;;;;5073539;28;20059;-59
2022/02/12 12:49:29;;;;;;;2.38;0.80;;;22.10;37.30;;;;;;5075143;28;20523;-60
2022/02/12 12:51:58;;;;;;;4.03;0.95;;;22.20;37.30;;;;;;5074910;28;20047;-59
2022/02/12 12:54:30;;;;;;;3.65;1.20;;;22.20;37.20;;;;;;5069936;28;20639;-56
2022/02/12 12:56:58;;;;;;;3.33;0.90;;;22.30;37.20;;;;;;5072386;28;20546;-59
2022/02/12 12:59:26;;;;;;;3.17;0.60;;;22.30;37.10;;;;;;5083164;28;20063;-59
2022/02/12 13:01:59;;;;;;;2.42;1.02;;;22.40;37.10;;;;;;5079172;28;20053;-59
2022/02/12 13:04:26;;;;;;;3.42;0.73;;;22.50;37.00;;;;;;5073261;28;20484;-54
2022/02/12 13:06:56;;;;;;;1.90;0.75;;;22.50;36.90;;;;;;5084802;28;20043;-59